Time;durP1;ratioP1;P1;durP2;ratioP2;P2;SDS_P1;SDS_P2;PMS_P1;PMS_P2;Temp;Humidity;BMP_temperature;BMP_pressure;BME280_temperature;BME280_humidity;BME280_pressure;Samples;Min_cycle;Max_cycle;Signal;HPM_P1;HPM_P2
2023/07/20 00:02:26;;;;;;;1.50;1.40;;;;;;;17.15;65.72;100128.75;10152612;29;20123;-74
2023/07/20 00:07:47;;;;;;;5.65;1.75;;;;;;;17.20;65.58;100124.50;10153480;29;20047;-75
2023/07/20 00:12:50;;;;;;;1.80;1.30;;;;;;;17.31;65.84;100112.41;10151438;29;20044;-74
2023/07/20 00:17:54;;;;;;;1.52;1.10;;;;;;;17.36;65.58;100117.31;10156518;29;20032;-75
2023/07/20 00:22:58;;;;;;;2.30;1.20;;;;;;;17.08;65.13;100108.72;10151038;29;20143;-74
2023/07/20 00:28:01;;;;;;;2.00;1.25;;;;;;;16.85;65.80;100124.88;10157918;29;20126;-75
2023/07/20 00:33:05;;;;;;;2.47;1.27;;;;;;;16.64;66.50;100119.97;10153245;29;20523;-75
2023/07/20 00:38:08;;;;;;;1.63;1.40;;;;;;;16.51;67.13;100124.06;10151856;29;20048;-74
2023/07/20 00:43:11;;;;;;;2.67;1.50;;;;;;;16.59;66.92;100112.34;10158202;29;20041;-74
2023/07/20 00:48:16;;;;;;;6.72;1.80;;;;;;;16.44;67.31;100114.06;10155392;29;20544;-75
2023/07/20 00:53:20;;;;;;;2.30;1.50;;;;;;;16.22;67.80;100116.38;10154948;29;20059;-74
2023/07/20 00:58:24;;;;;;;2.00;1.60;;;;;;;16.10;68.09;100106.88;10156303;29;20048;-74
2023/07/20 01:03:28;;;;;;;8.00;1.98;;;;;;;16.09;67.82;100107.88;10156502;29;20048;-74
2023/07/20 01:08:40;;;;;;;2.15;1.67;;;;;;;16.18;67.84;100112.31;10159119;29;20044;-75
2023/07/20 01:13:44;;;;;;;1.67;1.50;;;;;;;16.25;67.55;100110.59;10157946;29;20058;-74
2023/07/20 01:18:49;;;;;;;2.97;1.95;;;;;;;16.36;67.39;100102.19;10157102;29;20056;-74
2023/07/20 01:24:13;;;;;;;3.17;1.65;;;;;;;16.49;67.36;100104.38;10150509;29;20052;-74
2023/07/20 01:29:33;;;;;;;2.45;1.80;;;;;;;16.36;66.63;100110.31;10150862;29;20065;-74
2023/07/20 01:34:39;;;;;;;2.47;2.00;;;;;;;16.17;67.80;100102.47;10150701;29;20389;-75
2023/07/20 01:39:42;;;;;;;4.32;2.22;;;;;;;16.23;68.58;100106.38;10157419;29;20055;-74
2023/07/20 01:44:45;;;;;;;5.38;2.42;;;;;;;15.99;69.87;100097.22;10158430;29;20051;-75
2023/07/20 01:49:49;;;;;;;2.15;2.05;;;;;;;16.22;69.49;100091.97;10157117;29;20044;-75
2023/07/20 01:54:52;;;;;;;7.47;2.53;;;;;;;16.20;69.79;100095.88;10147891;29;20144;-75
2023/07/20 01:59:55;;;;;;;2.47;2.25;;;;;;;16.18;69.49;100087.94;10150632;29;20056;-75
2023/07/20 02:04:59;;;;;;;5.57;4.03;;;;;;;16.12;71.45;100086.72;10149267;29;20404;-75
2023/07/20 02:10:02;;;;;;;6.63;4.85;;;;;;;16.05;73.62;100088.41;10151924;29;20053;-75
2023/07/20 02:15:06;;;;;;;6.13;4.60;;;;;;;15.97;74.66;100091.09;10154141;29;20056;-75
2023/07/20 02:20:12;;;;;;;8.63;4.90;;;;;;;16.04;74.70;100094.81;10150313;29;20057;-75
2023/07/20 02:25:15;;;;;;;5.95;5.00;;;;;;;15.92;75.83;100099.72;10152296;29;20127;-75
2023/07/20 02:30:18;;;;;;;5.15;4.70;;;;;;;15.87;76.33;100093.94;10152303;29;20080;-75
2023/07/20 02:35:22;;;;;;;6.90;5.68;;;;;;;15.86;76.05;100092.25;10157193;29;20048;-74
2023/07/20 02:40:25;;;;;;;9.35;6.90;;;;;;;16.02;76.32;100082.50;10157247;29;20147;-74
2023/07/20 02:45:28;;;;;;;8.98;7.10;;;;;;;15.94;76.86;100086.03;10147063;29;20519;-77
2023/07/20 02:50:32;;;;;;;12.27;8.43;;;;;;;15.84;77.58;100085.31;10147647;29;20055;-74
2023/07/20 02:55:35;;;;;;;11.00;8.10;;;;;;;15.60;78.90;100096.91;10150292;29;20040;-75
2023/07/20 03:00:37;;;;;;;14.02;9.02;;;;;;;15.95;77.92;100101.25;10153657;29;20392;-74
2023/07/20 03:05:43;;;;;;;10.50;7.70;;;;;;;16.26;76.90;100106.06;10150367;29;20040;-76
2023/07/20 03:10:46;;;;;;;8.85;6.35;;;;;;;16.34;75.62;100101.50;10159034;29;20055;-74
2023/07/20 03:15:48;;;;;;;7.68;6.93;;;;;;;16.38;75.17;100112.03;10156370;29;20128;-76
2023/07/20 03:20:53;;;;;;;4.10;3.70;;;;;;;16.23;72.88;100115.34;10147853;29;20052;-75
2023/07/20 03:25:56;;;;;;;7.32;3.67;;;;;;;16.19;71.39;100111.28;10151365;29;20870;-74
2023/07/20 03:30:59;;;;;;;4.75;2.95;;;;;;;16.15;70.65;100107.19;10149336;29;20052;-75
2023/07/20 03:36:07;;;;;;;4.25;3.08;;;;;;;16.20;69.92;100109.41;10149651;29;20079;-74
2023/07/20 03:41:11;;;;;;;3.42;2.83;;;;;;;16.18;69.71;100116.88;10150688;29;20093;-75
2023/07/20 03:46:14;;;;;;;3.15;2.85;;;;;;;16.07;71.10;100118.91;10152972;29;20052;-74
2023/07/20 03:51:19;;;;;;;7.32;4.78;;;;;;;15.14;78.85;100131.50;10143154;29;20036;-76
2023/07/20 03:56:21;;;;;;;7.47;5.47;;;;;;;14.15;83.92;100135.25;10147177;29;20501;-77
2023/07/20 04:01:25;;;;;;;10.18;7.05;;;;;;;14.27;87.33;100144.00;10151066;29;20072;-77
2023/07/20 04:06:29;;;;;;;8.02;6.57;;;;;;;14.43;87.41;100144.19;10156366;29;20042;-77
2023/07/20 04:11:31;;;;;;;8.82;6.30;;;;;;;14.38;87.62;100149.19;10151401;29;20107;-77
2023/07/20 04:16:34;;;;;;;7.32;5.95;;;;;;;14.22;87.98;100155.28;10147008;29;20052;-75
2023/07/20 04:21:42;;;;;;;6.53;5.88;;;;;;;14.20;88.43;100159.13;10153085;29;20044;-76
2023/07/20 04:26:45;;;;;;;8.23;6.57;;;;;;;14.16;88.74;100162.13;10154604;29;20048;-77
2023/07/20 04:31:48;;;;;;;8.25;7.25;;;;;;;14.30;88.89;100162.63;10147536;29;20075;-76
2023/07/20 04:36:53;;;;;;;7.63;6.82;;;;;;;14.30;89.20;100165.31;10164689;29;20565;-77
2023/07/20 04:41:57;;;;;;;11.02;8.30;;;;;;;14.14;88.94;100176.78;10169450;29;20048;-77
2023/07/20 04:47:00;;;;;;;8.65;7.75;;;;;;;14.24;89.39;100171.34;10166055;29;20033;-78
2023/07/20 04:52:07;;;;;;;11.45;8.30;;;;;;;14.34;89.64;100180.19;10165351;29;20048;-77
2023/07/20 04:57:12;;;;;;;9.63;7.63;;;;;;;14.36;90.04;100183.59;10163189;29;20036;-77
2023/07/20 05:02:20;;;;;;;8.10;6.65;;;;;;;14.38;88.60;100178.91;10172934;29;20051;-78
2023/07/20 05:07:24;;;;;;;9.02;6.75;;;;;;;14.54;90.10;100180.94;10171091;29;20044;-77
2023/07/20 05:12:27;;;;;;;11.82;6.72;;;;;;;14.72;90.49;100173.66;10166625;29;20088;-77
2023/07/20 05:17:30;;;;;;;5.55;5.07;;;;;;;14.33;88.24;100182.06;10159887;29;20044;-76
2023/07/20 05:22:35;;;;;;;4.63;4.28;;;;;;;14.44;87.97;100190.97;10166221;29;20096;-77
2023/07/20 05:27:39;;;;;;;4.97;4.47;;;;;;;14.61;88.34;100195.53;10161354;29;20048;-78
2023/07/20 05:32:41;;;;;;;5.63;4.63;;;;;;;14.83;88.56;100189.63;10163731;29;20056;-78
2023/07/20 05:37:46;;;;;;;4.80;4.07;;;;;;;14.97;89.20;100193.63;10158707;29;20079;-78
2023/07/20 05:42:51;;;;;;;4.50;4.05;;;;;;;14.83;86.97;100205.00;10166492;29;20104;-78
2023/07/20 05:47:55;;;;;;;4.72;4.30;;;;;;;14.77;87.93;100211.88;10168878;29;20068;-78
2023/07/20 05:52:59;;;;;;;4.72;4.32;;;;;;;14.94;87.85;100209.31;10162363;29;20052;-78
2023/07/20 05:58:04;;;;;;;4.85;3.97;;;;;;;15.20;87.17;100212.91;10160733;29;20075;-78
2023/07/20 06:03:07;;;;;;;4.45;4.03;;;;;;;14.60;84.58;100224.41;10178424;29;20058;-78
2023/07/20 06:08:11;;;;;;;4.30;3.90;;;;;;;14.80;84.00;100222.38;10170794;29;20040;-78
2023/07/20 06:13:14;;;;;;;3.20;2.90;;;;;;;15.07;84.02;100217.88;10171490;29;20044;-78
2023/07/20 06:18:17;;;;;;;2.92;2.72;;;;;;;15.07;83.95;100226.00;10177781;29;20048;-78
2023/07/20 06:23:21;;;;;;;3.95;3.10;;;;;;;15.17;84.63;100232.16;10165034;29;20048;-78
2023/07/20 06:28:24;;;;;;;3.10;2.70;;;;;;;15.22;85.11;100239.78;10169935;29;20100;-78
2023/07/20 06:33:27;;;;;;;3.35;2.60;;;;;;;15.72;85.08;100238.28;10164027;29;20057;-78
2023/07/20 06:38:31;;;;;;;2.72;2.50;;;;;;;16.21;83.20;100242.06;10163602;29;20045;-78
2023/07/20 06:43:34;;;;;;;2.67;2.42;;;;;;;16.04;82.55;100245.69;10174821;29;20524;-78
2023/07/20 06:48:40;;;;;;;2.45;1.98;;;;;;;16.09;81.38;100249.59;10162499;29;20041;-78
2023/07/20 06:53:48;;;;;;;2.53;2.33;;;;;;;16.01;80.03;100249.56;10171194;29;20504;-77
2023/07/20 06:58:50;;;;;;;2.15;1.60;;;;;;;15.35;77.20;100253.78;10164341;29;20040;-78
2023/07/20 07:03:54;;;;;;;2.17;1.60;;;;;;;15.72;80.71;100260.81;10167915;29;20062;-77
2023/07/20 07:08:59;;;;;;;4.22;1.50;;;;;;;16.21;76.68;100257.44;10167797;29;20516;-77
2023/07/20 07:14:02;;;;;;;1.00;1.00;;;;;;;16.13;78.93;100266.41;10160498;29;20048;-78
2023/07/20 07:19:05;;;;;;;1.48;1.38;;;;;;;15.81;78.43;100270.66;10167386;29;20067;-77
2023/07/20 07:24:09;;;;;;;2.67;1.20;;;;;;;15.29;73.60;100272.50;10155486;29;20043;-77
2023/07/20 07:29:12;;;;;;;1.45;1.13;;;;;;;15.75;75.11;100268.59;10160289;29;20404;-77
2023/07/20 07:34:15;;;;;;;2.15;1.00;;;;;;;16.41;72.83;100266.19;10158295;29;20274;-77
2023/07/20 07:39:20;;;;;;;1.30;1.08;;;;;;;17.21;73.29;100275.47;10156690;29;20040;-77
2023/07/20 07:44:27;;;;;;;2.13;1.10;;;;;;;17.85;67.85;100270.09;10156524;29;20041;-77
2023/07/20 07:49:31;;;;;;;1.30;0.70;;;;;;;17.07;63.49;100286.13;10155480;29;20043;-77
2023/07/20 07:54:35;;;;;;;1.05;0.85;;;;;;;18.69;59.44;100280.44;10160202;29;20591;-77
2023/07/20 07:59:38;;;;;;;2.92;0.95;;;;;;;18.94;59.82;100284.69;10159177;29;20043;-77
2023/07/20 08:04:41;;;;;;;1.15;0.73;;;;;;;19.16;57.88;100291.16;10150904;29;20060;-76
2023/07/20 08:09:45;;;;;;;1.75;0.60;;;;;;;20.35;59.75;100296.78;10149656;29;20493;-76
2023/07/20 08:14:48;;;;;;;0.70;0.60;;;;;;;20.48;58.60;100291.47;10159889;29;20059;-76
2023/07/20 08:19:51;;;;;;;1.13;0.43;;;;;;;19.20;53.81;100297.94;10156071;29;20099;-76
2023/07/20 08:24:55;;;;;;;2.58;0.70;;;;;;;19.35;56.63;100310.75;10156821;29;20045;-76
2023/07/20 08:29:58;;;;;;;1.33;0.80;;;;;;;18.71;55.31;100302.88;10157267;29;20523;-75
2023/07/20 08:35:02;;;;;;;1.17;0.63;;;;;;;19.99;51.51;100305.69;10167948;29;20055;-76
2023/07/20 08:40:09;;;;;;;1.90;1.40;;;;;;;20.75;48.80;100308.16;10166908;29;20040;-76
2023/07/20 08:45:14;;;;;;;2.42;1.40;;;;;;;21.65;47.95;100314.91;10153749;29;20506;-76
2023/07/20 08:50:17;;;;;;;0.80;0.80;;;;;;;21.56;45.46;100306.00;10158494;29;20040;-76
2023/07/20 08:55:22;;;;;;;1.52;0.70;;;;;;;20.45;45.89;100312.84;10160819;29;20048;-75
2023/07/20 09:00:26;;;;;;;1.13;0.70;;;;;;;19.38;45.87;100313.09;10157038;29;20048;-76
2023/07/20 09:05:29;;;;;;;3.95;2.17;;;;;;;20.72;46.94;100312.13;10150065;29;20044;-76
2023/07/20 09:10:37;;;;;;;4.57;2.45;;;;;;;21.37;44.63;100303.97;10159871;29;20029;-76
2023/07/20 09:15:40;;;;;;;5.63;2.08;;;;;;;22.47;43.57;100302.41;10163162;29;20044;-75
2023/07/20 09:20:43;;;;;;;5.43;1.10;;;;;;;22.88;43.11;100302.31;10163011;29;20087;-75
2023/07/20 09:25:50;;;;;;;1.63;0.57;;;;;;;23.49;40.77;100295.84;10156681;29;20044;-76
2023/07/20 09:30:55;;;;;;;1.25;0.57;;;;;;;23.50;42.38;100305.75;10152514;29;20051;-76
2023/07/20 09:36:03;;;;;;;2.50;1.55;;;;;;;21.65;42.04;100313.00;10146595;29;20048;-74
2023/07/20 09:41:27;;;;;;;2.90;1.73;;;;;;;20.53;45.89;100319.03;10161690;29;20032;-75
2023/07/20 09:46:42;;;;;;;1.73;1.10;;;;;;;21.11;44.94;100323.69;10148889;29;20118;-75
2023/07/20 09:51:48;;;;;;;1.17;0.57;;;;;;;22.16;40.17;100311.03;10151170;29;20042;-75
2023/07/20 09:56:53;;;;;;;0.63;0.50;;;;;;;21.99;41.50;100316.00;10162418;29;20130;-75
2023/07/20 10:01:59;;;;;;;1.45;0.50;;;;;;;22.14;39.28;100310.41;10153622;29;20044;-75
2023/07/20 10:07:07;;;;;;;0.80;0.70;;;;;;;21.40;42.16;100306.31;10164639;29;20472;-74
2023/07/20 10:12:11;;;;;;;1.00;0.60;;;;;;;23.69;39.05;100298.56;10149175;29;20036;-75
2023/07/20 10:17:20;;;;;;;2.03;0.47;;;;;;;24.23;38.14;100302.91;10158048;29;20375;-75
2023/07/20 10:22:26;;;;;;;2.40;1.23;;;;;;;23.19;38.16;100307.22;10147613;29;20051;-75
2023/07/20 10:27:31;;;;;;;2.78;1.63;;;;;;;22.76;41.11;100303.94;10159398;29;20419;-75
2023/07/20 10:32:34;;;;;;;1.13;0.50;;;;;;;22.42;38.50;100307.59;10144918;29;20043;-74
2023/07/20 10:37:48;;;;;;;1.48;0.65;;;;;;;22.49;39.20;100297.53;10156930;29;20134;-76
2023/07/20 10:42:56;;;;;;;4.25;0.70;;;;;;;22.28;38.11;100291.13;10150896;29;20128;-76
2023/07/20 10:47:59;;;;;;;4.45;1.20;;;;;;;23.18;38.98;100286.38;10151366;29;20040;-76
2023/07/20 10:53:10;;;;;;;1.00;0.30;;;;;;;25.44;35.18;100279.19;10148724;29;20505;-76
2023/07/20 10:58:15;;;;;;;1.10;0.40;;;;;;;25.11;33.29;100287.72;10172054;29;20528;-76
2023/07/20 11:03:28;;;;;;;1.92;0.40;;;;;;;23.72;35.64;100291.81;10153288;29;20048;-75
2023/07/20 11:08:42;;;;;;;0.65;0.65;;;;;;;23.64;35.91;100290.13;10148617;29;20067;-76
2023/07/20 11:13:57;;;;;;;0.95;0.40;;;;;;;24.06;35.41;100280.59;10158215;29;20040;-76
2023/07/20 11:19:00;;;;;;;0.93;0.45;;;;;;;23.60;34.35;100288.88;10150041;29;20441;-76
2023/07/20 11:24:05;;;;;;;2.70;1.30;;;;;;;22.88;36.48;100279.56;10145997;29;20528;-75
2023/07/20 11:29:09;;;;;;;0.55;0.43;;;;;;;22.63;37.24;100276.56;10159021;29;20048;-75
2023/07/20 11:34:27;;;;;;;0.60;0.60;;;;;;;23.89;36.38;100273.91;10145373;29;20044;-76
2023/07/20 11:39:30;;;;;;;1.65;0.65;;;;;;;25.11;34.89;100265.72;10156676;29;20037;-75
2023/07/20 11:44:35;;;;;;;0.60;0.60;;;;;;;23.47;35.63;100253.25;10153232;29;20448;-75
2023/07/20 11:49:39;;;;;;;0.55;0.40;;;;;;;22.74;35.65;100259.53;10154238;29;20123;-75
2023/07/20 11:54:43;;;;;;;0.68;0.68;;;;;;;22.83;36.01;100249.22;10156065;29;20132;-76
2023/07/20 11:59:57;;;;;;;1.80;0.82;;;;;;;23.47;34.74;100248.63;10147302;29;20076;-76
2023/07/20 12:05:00;;;;;;;1.92;0.90;;;;;;;22.18;37.03;100255.09;10150943;29;20048;-76
2023/07/20 12:10:07;;;;;;;1.85;0.90;;;;;;;22.79;36.97;100246.06;10153805;29;20492;-75
2023/07/20 12:15:17;;;;;;;1.08;1.08;;;;;;;23.19;35.64;100243.38;10151110;29;20045;-75
2023/07/20 12:20:27;;;;;;;1.42;1.02;;;;;;;21.73;36.68;100253.78;10153428;29;20042;-75
2023/07/20 12:25:40;;;;;;;1.33;1.23;;;;;;;23.47;36.06;100237.66;10155066;29;20036;-75
2023/07/20 12:30:46;;;;;;;2.90;1.15;;;;;;;23.33;35.64;100244.19;10149104;29;20398;-75
2023/07/20 12:35:51;;;;;;;1.48;1.38;;;;;;;21.48;39.15;100245.22;10152615;29;20048;-76
2023/07/20 12:40:55;;;;;;;1.60;1.48;;;;;;;21.15;39.01;100248.53;10161302;29;20045;-76
2023/07/20 12:45:59;;;;;;;2.00;1.80;;;;;;;22.59;38.05;100237.78;10151567;29;20064;-76
2023/07/20 12:51:03;;;;;;;1.73;1.63;;;;;;;22.82;37.89;100225.59;10153247;29;20092;-76
2023/07/20 12:56:06;;;;;;;3.08;2.78;;;;;;;22.90;37.02;100226.28;10148942;29;20047;-76
2023/07/20 13:01:13;;;;;;;2.78;2.58;;;;;;;22.73;38.63;100230.44;10164292;29;20466;-76
2023/07/20 13:06:16;;;;;;;1.50;1.40;;;;;;;24.39;34.78;100224.72;10163599;29;20147;-75
2023/07/20 13:11:22;;;;;;;1.88;1.23;;;;;;;25.75;32.33;100215.00;10155366;29;20048;-75
2023/07/20 13:16:27;;;;;;;1.73;1.00;;;;;;;23.70;34.10;100219.91;10160386;29;20202;-75
2023/07/20 13:21:30;;;;;;;1.17;0.95;;;;;;;22.46;36.54;100213.97;10162234;29;20044;-75
2023/07/20 13:26:33;;;;;;;1.25;0.90;;;;;;;22.66;36.61;100216.75;10153549;29;20424;-76
2023/07/20 13:31:38;;;;;;;1.60;1.50;;;;;;;24.42;34.56;100207.84;10157055;29;20071;-76
2023/07/20 13:36:44;;;;;;;1.77;1.65;;;;;;;24.84;37.06;100208.19;10163213;29;20048;-75
2023/07/20 13:41:46;;;;;;;1.33;1.20;;;;;;;26.57;32.43;100200.84;10149560;29;20044;-75
2023/07/20 13:46:51;;;;;;;1.48;0.75;;;;;;;26.70;31.89;100197.91;10152248;29;20086;-76
2023/07/20 13:52:14;;;;;;;0.77;0.40;;;;;;;25.47;31.96;100199.00;10158691;29;20516;-76
2023/07/20 13:57:20;;;;;;;2.47;1.10;;;;;;;25.85;33.79;100201.56;10153435;29;20528;-76
2023/07/20 14:02:25;;;;;;;2.53;1.08;;;;;;;27.27;33.61;100193.81;10154052;29;20457;-76
2023/07/20 14:07:31;;;;;;;1.60;1.10;;;;;;;27.45;31.66;100199.22;10147333;29;20127;-76
2023/07/20 14:12:34;;;;;;;1.50;0.93;;;;;;;26.05;33.74;100205.97;10152917;29;20493;-76
2023/07/20 14:17:38;;;;;;;1.13;0.93;;;;;;;24.82;35.98;100201.22;10162033;29;20419;-75
2023/07/20 14:22:42;;;;;;;0.77;0.70;;;;;;;23.47;37.38;100203.91;10155994;29;20061;-75
2023/07/20 14:27:45;;;;;;;2.05;0.60;;;;;;;22.86;39.16;100199.50;10157284;29;20044;-76
2023/07/20 14:32:49;;;;;;;0.82;0.60;;;;;;;22.86;38.67;100200.34;10155800;29;20074;-76
2023/07/20 14:37:52;;;;;;;0.98;0.50;;;;;;;23.07;38.42;100199.31;10161978;29;20094;-75
2023/07/20 14:42:56;;;;;;;1.73;0.65;;;;;;;23.36;37.73;100203.50;10160161;29;20051;-75
2023/07/20 14:48:00;;;;;;;0.68;0.52;;;;;;;22.18;39.52;100219.53;10154153;29;20050;-75
2023/07/20 14:53:03;;;;;;;2.60;0.55;;;;;;;22.36;40.44;100213.50;10154812;29;20048;-75
2023/07/20 14:58:08;;;;;;;1.55;0.57;;;;;;;23.21;40.20;100205.66;10147868;29;20127;-75
2023/07/20 15:03:13;;;;;;;0.80;0.70;;;;;;;25.55;37.51;100206.94;10160114;29;20040;-75
2023/07/20 15:08:16;;;;;;;1.27;0.60;;;;;;;27.24;35.41;100191.56;10153628;29;20104;-75
2023/07/20 15:13:19;;;;;;;1.42;0.65;;;;;;;26.12;35.40;100193.00;10151702;29;20043;-75
2023/07/20 15:18:23;;;;;;;1.17;0.55;;;;;;;27.34;33.64;100191.78;10153371;29;20852;-76
2023/07/20 15:23:43;;;;;;;3.83;0.57;;;;;;;26.55;33.76;100185.63;10152102;29;20051;-76
2023/07/20 15:28:46;;;;;;;0.70;0.50;;;;;;;25.48;35.89;100180.59;10154954;29;20045;-75
2023/07/20 15:33:52;;;;;;;1.73;0.45;;;;;;;26.99;33.70;100183.47;10156459;29;20071;-76
2023/07/20 15:38:55;;;;;;;2.75;0.43;;;;;;;26.07;35.05;100184.59;10153911;29;20049;-75
2023/07/20 15:43:58;;;;;;;0.60;0.50;;;;;;;24.99;35.22;100183.16;10148400;29;20037;-75
2023/07/20 15:49:02;;;;;;;1.55;0.50;;;;;;;25.83;34.45;100170.69;10155501;29;20160;-75
2023/07/20 15:54:07;;;;;;;0.52;0.52;;;;;;;24.30;35.23;100176.66;10149813;29;20051;-75
2023/07/20 15:59:11;;;;;;;3.08;0.57;;;;;;;25.09;36.02;100180.75;10160725;29;20389;-75
2023/07/20 16:04:15;;;;;;;3.17;0.88;;;;;;;26.14;35.19;100155.06;10153647;29;20043;-75
2023/07/20 16:09:18;;;;;;;1.08;0.45;;;;;;;25.00;35.81;100167.50;10152864;29;20044;-75
2023/07/20 16:14:21;;;;;;;0.85;0.40;;;;;;;23.80;36.57;100165.47;10158821;29;20131;-75
2023/07/20 16:19:25;;;;;;;0.40;0.40;;;;;;;25.44;35.73;100149.13;10148890;29;20501;-75
2023/07/20 16:24:28;;;;;;;0.63;0.32;;;;;;;26.35;34.68;100152.91;10156706;29;20496;-76
2023/07/20 16:29:32;;;;;;;0.55;0.40;;;;;;;26.20;34.29;100148.63;10152629;29;20086;-76
2023/07/20 16:34:36;;;;;;;2.40;0.60;;;;;;;27.10;34.00;100141.34;10157685;29;20431;-75
2023/07/20 16:39:42;;;;;;;3.40;0.50;;;;;;;27.82;32.41;100136.31;10161663;29;20039;-74
2023/07/20 16:44:50;;;;;;;1.95;0.50;;;;;;;27.54;32.07;100128.84;10155412;29;20509;-76
2023/07/20 16:49:55;;;;;;;0.30;0.30;;;;;;;28.88;30.45;100126.69;10156079;29;20056;-76
2023/07/20 16:54:57;;;;;;;0.35;0.35;;;;;;;31.91;25.89;100112.00;10152724;29;20544;-76
2023/07/20 17:00:01;;;;;;;0.52;0.47;;;;;;;33.27;24.14;100117.13;10154842;29;20052;-76
2023/07/20 17:05:09;;;;;;;0.90;0.20;;;;;;;29.90;26.81;100119.03;10157416;29;20103;-76
2023/07/20 17:10:12;;;;;;;0.38;0.20;;;;;;;27.17;29.80;100123.56;10161847;29;20044;-75
2023/07/20 17:15:16;;;;;;;5.40;0.60;;;;;;;24.20;33.66;100126.88;10161658;29;20044;-76
2023/07/20 17:20:20;;;;;;;2.17;0.70;;;;;;;23.00;36.54;100121.75;10160894;29;20423;-75
2023/07/20 17:25:27;;;;;;;4.55;0.55;;;;;;;22.53;37.19;100121.78;10156411;29;20032;-75
2023/07/20 17:30:34;;;;;;;0.77;0.60;;;;;;;22.29;36.81;100114.97;10158119;29;20044;-75
2023/07/20 17:35:38;;;;;;;1.95;0.50;;;;;;;23.72;36.38;100106.19;10163738;29;20055;-76
2023/07/20 17:40:42;;;;;;;1.40;0.60;;;;;;;27.36;32.07;100098.63;10160261;29;20048;-76
2023/07/20 17:45:49;;;;;;;1.90;0.50;;;;;;;30.23;29.06;100093.09;10157435;29;20044;-75
2023/07/20 17:50:55;;;;;;;1.85;0.45;;;;;;;33.25;25.85;100085.94;10156072;29;20052;-76
2023/07/20 17:55:57;;;;;;;0.60;0.40;;;;;;;33.60;24.90;100087.78;10158638;29;20419;-76
2023/07/20 18:01:01;;;;;;;0.32;0.15;;;;;;;29.91;27.09;100090.25;10154669;29;20051;-76
2023/07/20 18:06:07;;;;;;;0.30;0.30;;;;;;;25.95;31.45;100092.91;10150094;29;20044;-76
2023/07/20 18:11:10;;;;;;;0.52;0.43;;;;;;;23.74;34.95;100093.13;10150550;29;20048;-75
2023/07/20 18:16:13;;;;;;;0.43;0.20;;;;;;;23.12;36.52;100084.50;10153560;29;20076;-76
2023/07/20 18:21:18;;;;;;;0.73;0.40;;;;;;;22.62;37.28;100083.25;10156192;29;20045;-75
2023/07/20 18:26:20;;;;;;;0.35;0.35;;;;;;;22.14;37.19;100083.41;10149262;29;20052;-75
2023/07/20 18:31:24;;;;;;;0.47;0.40;;;;;;;21.77;39.22;100089.16;10150941;29;20072;-75
2023/07/20 18:36:29;;;;;;;0.40;0.30;;;;;;;21.70;39.47;100077.34;10153158;29;20059;-75
2023/07/20 18:41:31;;;;;;;0.98;0.25;;;;;;;21.64;39.50;100079.03;10141255;29;20078;-75
2023/07/20 18:46:34;;;;;;;0.32;0.32;;;;;;;21.41;40.84;100079.31;10149171;29;20043;-76
2023/07/20 18:51:38;;;;;;;1.55;0.35;;;;;;;21.14;40.48;100078.34;10151115;29;20084;-75
2023/07/20 18:56:41;;;;;;;1.23;0.40;;;;;;;20.83;41.49;100073.28;10144939;29;20103;-75
2023/07/20 19:01:45;;;;;;;0.47;0.47;;;;;;;20.53;42.12;100076.19;10152299;29;20039;-75
2023/07/20 19:06:49;;;;;;;0.43;0.43;;;;;;;20.24;43.15;100079.91;10144852;29;20067;-75
2023/07/20 19:11:52;;;;;;;0.30;0.30;;;;;;;20.01;43.42;100081.97;10149820;29;20048;-75
2023/07/20 19:16:57;;;;;;;0.80;0.40;;;;;;;19.83;44.40;100085.97;10155337;29;20063;-75
2023/07/20 19:22:01;;;;;;;0.52;0.40;;;;;;;19.73;44.40;100090.03;10144596;29;20457;-75
2023/07/20 19:27:04;;;;;;;0.40;0.40;;;;;;;19.68;43.69;100085.16;10147915;29;20060;-75
2023/07/20 19:32:08;;;;;;;1.27;0.52;;;;;;;19.54;43.88;100080.56;10143620;29;20063;-75
2023/07/20 19:37:12;;;;;;;0.63;0.60;;;;;;;19.37;44.76;100094.38;10150106;29;20179;-76
2023/07/20 19:42:15;;;;;;;0.65;0.40;;;;;;;19.38;45.71;100089.78;10145720;29;20096;-75
2023/07/20 19:47:18;;;;;;;0.88;0.50;;;;;;;19.33;45.73;100094.94;10155140;29;20056;-75
2023/07/20 19:52:23;;;;;;;1.15;0.60;;;;;;;19.32;45.38;100101.44;10147776;29;20052;-75
2023/07/20 19:57:25;;;;;;;0.88;0.60;;;;;;;19.23;45.30;100106.13;10149290;29;20049;-76
2023/07/20 20:02:31;;;;;;;1.13;0.60;;;;;;;19.20;45.71;100112.78;10152715;29;20091;-74
2023/07/20 20:07:39;;;;;;;0.73;0.73;;;;;;;19.00;46.34;100114.38;10152332;29;20112;-75
2023/07/20 20:12:42;;;;;;;0.85;0.68;;;;;;;18.84;46.32;100119.97;10158302;29;20037;-75
2023/07/20 20:17:45;;;;;;;1.98;1.35;;;;;;;18.83;47.19;100112.84;10147201;29;20041;-76
2023/07/20 20:22:49;;;;;;;0.80;0.43;;;;;;;18.68;47.49;100115.53;10168091;29;20052;-75
2023/07/20 20:27:52;;;;;;;0.50;0.50;;;;;;;18.47;47.60;100105.31;10150355;29;20059;-75
2023/07/20 20:32:55;;;;;;;1.45;0.55;;;;;;;18.51;47.13;100109.34;10159305;29;20036;-75
2023/07/20 20:37:59;;;;;;;1.38;0.55;;;;;;;18.64;47.90;100108.75;10165227;29;20095;-75
2023/07/20 20:43:05;;;;;;;1.77;0.52;;;;;;;18.68;47.95;100099.19;10155814;29;20067;-75
2023/07/20 20:48:08;;;;;;;1.48;0.60;;;;;;;18.62;48.38;100108.91;10159431;29;20523;-75
2023/07/20 20:53:13;;;;;;;0.57;0.40;;;;;;;18.66;48.32;100102.09;10155638;29;20042;-75
2023/07/20 20:58:16;;;;;;;0.68;0.40;;;;;;;18.67;48.68;100103.75;10158649;29;20067;-75
2023/07/20 21:03:19;;;;;;;1.17;0.68;;;;;;;18.58;49.21;100105.72;10149445;29;20051;-75
2023/07/20 21:08:23;;;;;;;1.20;0.70;;;;;;;18.48;49.94;100104.28;10153633;29;20055;-75
2023/07/20 21:13:26;;;;;;;1.95;0.50;;;;;;;18.33;50.68;100094.19;10159002;29;20040;-75
2023/07/20 21:18:29;;;;;;;1.73;0.60;;;;;;;18.34;50.93;100097.75;10143854;29;20492;-75
2023/07/20 21:23:34;;;;;;;2.40;0.55;;;;;;;18.36;50.55;100099.28;10155330;29;20071;-75
2023/07/20 21:28:37;;;;;;;0.95;0.65;;;;;;;18.32;50.65;100094.38;10155966;29;20040;-75
2023/07/20 21:33:40;;;;;;;1.77;0.70;;;;;;;18.35;50.53;100086.72;10158329;29;20048;-74
2023/07/20 21:38:44;;;;;;;0.93;0.75;;;;;;;18.38;50.40;100080.06;10155759;29;20500;-75
2023/07/20 21:43:47;;;;;;;1.52;0.82;;;;;;;18.45;50.65;100080.16;10144871;29;20056;-75
2023/07/20 21:48:50;;;;;;;1.27;0.70;;;;;;;18.34;50.52;100084.16;10156634;29;20051;-75
2023/07/20 21:53:54;;;;;;;0.80;0.80;;;;;;;18.25;50.23;100088.84;10158609;29;20049;-76
2023/07/20 21:58:57;;;;;;;3.58;0.80;;;;;;;18.16;50.39;100081.78;10151175;29;20731;-76
2023/07/20 22:04:00;;;;;;;0.75;0.73;;;;;;;17.97;50.81;100082.22;10154072;29;20048;-75
2023/07/20 22:09:05;;;;;;;2.35;0.90;;;;;;;17.99;51.40;100088.34;10152243;29;20112;-75
2023/07/20 22:14:09;;;;;;;0.98;0.88;;;;;;;17.84;51.72;100078.22;10148459;29;20051;-75
2023/07/20 22:19:12;;;;;;;1.35;1.13;;;;;;;17.84;51.91;100074.66;10152609;29;20147;-75
2023/07/20 22:24:16;;;;;;;1.20;0.90;;;;;;;17.95;52.26;100054.38;10152516;29;20063;-75
2023/07/20 22:29:19;;;;;;;1.80;1.30;;;;;;;17.90;52.55;100057.63;10152154;29;20036;-74
2023/07/20 22:34:22;;;;;;;2.35;1.08;;;;;;;17.79;53.10;100058.03;10156247;29;20096;-74
2023/07/20 22:39:27;;;;;;;0.80;0.80;;;;;;;17.73;53.12;100059.59;10143595;29;20052;-74
2023/07/20 22:44:30;;;;;;;2.88;0.80;;;;;;;17.75;53.22;100054.84;10149470;29;20113;-75
2023/07/20 22:49:33;;;;;;;2.42;0.93;;;;;;;17.62;53.73;100044.56;10159350;29;20040;-75
2023/07/20 22:54:38;;;;;;;1.58;1.10;;;;;;;17.54;54.17;100043.75;10146409;29;20036;-76
2023/07/20 22:59:40;;;;;;;2.92;1.08;;;;;;;17.52;54.23;100045.81;10158297;29;20123;-75
2023/07/20 23:04:44;;;;;;;1.17;1.05;;;;;;;17.50;54.01;100043.28;10147503;29;20071;-76
2023/07/20 23:09:50;;;;;;;1.45;1.30;;;;;;;17.51;54.45;100044.97;10152267;29;20552;-75
2023/07/20 23:14:52;;;;;;;1.13;1.05;;;;;;;17.63;54.62;100039.97;10155746;29;20040;-75
2023/07/20 23:19:56;;;;;;;1.80;0.95;;;;;;;17.65;54.17;100035.19;10146788;29;20048;-75